sensor_id;sensor_type;location;lat;lon;timestamp;pressure;altitude;pressure_sealevel;temperature;humidity
47430;BME280;33181;49.246;7.372;2023-04-21T00:01:33;98442.19;;;4.90;88.36
47430;BME280;33181;49.246;7.372;2023-04-21T00:03:59;98437.13;;;4.74;89.70
47430;BME280;33181;49.246;7.372;2023-04-21T00:06:25;98435.72;;;4.69;90.49
47430;BME280;33181;49.246;7.372;2023-04-21T00:08:52;98434.50;;;4.60;91.21
47430;BME280;33181;49.246;7.372;2023-04-21T00:11:17;98430.91;;;4.62;90.85
47430;BME280;33181;49.246;7.372;2023-04-21T00:13:43;98440.09;;;4.68;90.73
47430;BME280;33181;49.246;7.372;2023-04-21T00:16:09;98438.06;;;4.73;90.29
47430;BME280;33181;49.246;7.372;2023-04-21T00:18:36;98438.25;;;4.70;90.17
47430;BME280;33181;49.246;7.372;2023-04-21T00:21:01;98439.41;;;4.79;89.74
47430;BME280;33181;49.246;7.372;2023-04-21T00:23:27;98431.78;;;4.90;89.57
47430;BME280;33181;49.246;7.372;2023-04-21T00:25:53;98438.84;;;5.02;89.17
47430;BME280;33181;49.246;7.372;2023-04-21T00:28:19;98428.94;;;5.07;88.48
47430;BME280;33181;49.246;7.372;2023-04-21T00:30:44;98434.16;;;5.07;87.90
47430;BME280;33181;49.246;7.372;2023-04-21T00:33:10;98425.31;;;5.10;87.26
47430;BME280;33181;49.246;7.372;2023-04-21T00:35:36;98436.56;;;5.10;87.20
47430;BME280;33181;49.246;7.372;2023-04-21T00:38:02;98430.25;;;5.15;86.72
47430;BME280;33181;49.246;7.372;2023-04-21T00:40:28;98417.94;;;5.17;86.33
47430;BME280;33181;49.246;7.372;2023-04-21T00:42:53;98411.84;;;5.18;85.81
47430;BME280;33181;49.246;7.372;2023-04-21T00:45:20;98417.66;;;5.21;85.59
47430;BME280;33181;49.246;7.372;2023-04-21T00:47:45;98416.84;;;5.21;84.75
47430;BME280;33181;49.246;7.372;2023-04-21T00:50:12;98413.50;;;5.19;83.86
47430;BME280;33181;49.246;7.372;2023-04-21T00:52:42;98410.34;;;5.14;83.66
47430;BME280;33181;49.246;7.372;2023-04-21T00:55:08;98406.06;;;5.13;83.08
47430;BME280;33181;49.246;7.372;2023-04-21T00:57:35;98407.94;;;5.10;82.48
47430;BME280;33181;49.246;7.372;2023-04-21T01:00:03;98411.03;;;5.03;82.49
47430;BME280;33181;49.246;7.372;2023-04-21T01:02:31;98408.72;;;4.98;81.93
47430;BME280;33181;49.246;7.372;2023-04-21T01:04:57;98392.66;;;4.92;82.25
47430;BME280;33181;49.246;7.372;2023-04-21T01:07:24;98397.03;;;4.91;82.07
47430;BME280;33181;49.246;7.372;2023-04-21T01:09:50;98400.44;;;4.92;82.01
47430;BME280;33181;49.246;7.372;2023-04-21T01:12:16;98404.94;;;4.90;81.86
47430;BME280;33181;49.246;7.372;2023-04-21T01:14:41;98399.00;;;4.87;82.01
47430;BME280;33181;49.246;7.372;2023-04-21T01:17:07;98410.53;;;4.83;81.65
47430;BME280;33181;49.246;7.372;2023-04-21T01:19:39;98401.44;;;4.76;81.38
47430;BME280;33181;49.246;7.372;2023-04-21T01:22:11;98402.34;;;4.75;81.39
47430;BME280;33181;49.246;7.372;2023-04-21T01:24:45;98398.84;;;4.76;81.40
47430;BME280;33181;49.246;7.372;2023-04-21T01:27:13;98394.53;;;4.75;81.52
47430;BME280;33181;49.246;7.372;2023-04-21T01:29:41;98397.53;;;4.69;81.27
47430;BME280;33181;49.246;7.372;2023-04-21T01:32:11;98396.88;;;4.65;81.23
47430;BME280;33181;49.246;7.372;2023-04-21T01:34:39;98395.22;;;4.64;81.14
47430;BME280;33181;49.246;7.372;2023-04-21T01:37:15;98394.59;;;4.61;81.06
47430;BME280;33181;49.246;7.372;2023-04-21T01:39:44;98396.56;;;4.57;81.19
47430;BME280;33181;49.246;7.372;2023-04-21T01:42:11;98388.06;;;4.54;81.22
47430;BME280;33181;49.246;7.372;2023-04-21T01:44:37;98390.16;;;4.49;81.31
47430;BME280;33181;49.246;7.372;2023-04-21T01:47:04;98396.94;;;4.51;81.44
47430;BME280;33181;49.246;7.372;2023-04-21T01:49:30;98394.31;;;4.51;81.65
47430;BME280;33181;49.246;7.372;2023-04-21T01:51:56;98391.72;;;4.51;81.58
47430;BME280;33181;49.246;7.372;2023-04-21T01:54:21;98387.44;;;4.50;81.35
47430;BME280;33181;49.246;7.372;2023-04-21T01:56:47;98395.41;;;4.47;81.16
47430;BME280;33181;49.246;7.372;2023-04-21T01:59:13;98390.97;;;4.49;81.37
47430;BME280;33181;49.246;7.372;2023-04-21T02:01:39;98390.88;;;4.51;81.27
47430;BME280;33181;49.246;7.372;2023-04-21T02:04:04;98391.81;;;4.50;81.10
47430;BME280;33181;49.246;7.372;2023-04-21T02:06:30;98389.38;;;4.47;80.81
47430;BME280;33181;49.246;7.372;2023-04-21T02:08:57;98396.66;;;4.41;80.61
47430;BME280;33181;49.246;7.372;2023-04-21T02:11:24;98390.13;;;4.34;80.73
47430;BME280;33181;49.246;7.372;2023-04-21T02:13:52;98402.41;;;4.32;80.84
47430;BME280;33181;49.246;7.372;2023-04-21T02:16:18;98397.59;;;4.26;80.59
47430;BME280;33181;49.246;7.372;2023-04-21T02:18:46;98396.94;;;4.23;81.05
47430;BME280;33181;49.246;7.372;2023-04-21T02:21:13;98389.97;;;4.23;81.14
47430;BME280;33181;49.246;7.372;2023-04-21T02:23:40;98380.59;;;4.21;81.05
47430;BME280;33181;49.246;7.372;2023-04-21T02:26:06;98394.78;;;4.15;80.39
47430;BME280;33181;49.246;7.372;2023-04-21T02:28:31;98385.78;;;4.06;80.20
47430;BME280;33181;49.246;7.372;2023-04-21T02:30:57;98384.28;;;4.02;80.43
47430;BME280;33181;49.246;7.372;2023-04-21T02:33:23;98387.84;;;4.01;80.69
47430;BME280;33181;49.246;7.372;2023-04-21T02:35:48;98393.47;;;3.93;80.63
47430;BME280;33181;49.246;7.372;2023-04-21T02:38:14;98388.44;;;3.90;80.35
47430;BME280;33181;49.246;7.372;2023-04-21T02:40:40;98394.88;;;3.85;81.04
47430;BME280;33181;49.246;7.372;2023-04-21T02:43:07;98387.97;;;3.84;81.35
47430;BME280;33181;49.246;7.372;2023-04-21T02:45:33;98396.06;;;3.79;81.88
47430;BME280;33181;49.246;7.372;2023-04-21T02:47:58;98401.97;;;3.81;81.92
47430;BME280;33181;49.246;7.372;2023-04-21T02:50:25;98403.03;;;3.79;81.37
47430;BME280;33181;49.246;7.372;2023-04-21T02:52:50;98409.22;;;3.76;81.56
47430;BME280;33181;49.246;7.372;2023-04-21T02:55:16;98408.28;;;3.77;81.52
47430;BME280;33181;49.246;7.372;2023-04-21T02:57:42;98411.72;;;3.78;81.61
47430;BME280;33181;49.246;7.372;2023-04-21T03:00:08;98403.84;;;3.79;81.72
47430;BME280;33181;49.246;7.372;2023-04-21T03:02:36;98405.50;;;3.80;81.78
47430;BME280;33181;49.246;7.372;2023-04-21T03:05:02;98404.41;;;3.84;81.70
47430;BME280;33181;49.246;7.372;2023-04-21T03:07:29;98398.47;;;3.82;81.22
47430;BME280;33181;49.246;7.372;2023-04-21T03:09:54;98400.06;;;3.85;81.30
47430;BME280;33181;49.246;7.372;2023-04-21T03:12:20;98405.16;;;3.86;81.12
47430;BME280;33181;49.246;7.372;2023-04-21T03:14:46;98414.41;;;3.76;80.69
47430;BME280;33181;49.246;7.372;2023-04-21T03:17:12;98404.81;;;3.62;82.46
47430;BME280;33181;49.246;7.372;2023-04-21T03:19:38;98412.59;;;3.48;83.37
47430;BME280;33181;49.246;7.372;2023-04-21T03:22:04;98412.81;;;3.43;84.69
47430;BME280;33181;49.246;7.372;2023-04-21T03:24:31;98409.75;;;3.37;86.00
47430;BME280;33181;49.246;7.372;2023-04-21T03:26:57;98409.19;;;3.32;86.34
47430;BME280;33181;49.246;7.372;2023-04-21T03:29:23;98405.59;;;3.34;86.34
47430;BME280;33181;49.246;7.372;2023-04-21T03:31:48;98408.91;;;3.36;86.21
47430;BME280;33181;49.246;7.372;2023-04-21T03:34:14;98411.50;;;3.36;86.15
47430;BME280;33181;49.246;7.372;2023-04-21T03:36:41;98407.63;;;3.43;86.09
47430;BME280;33181;49.246;7.372;2023-04-21T03:39:07;98403.13;;;3.47;85.68
47430;BME280;33181;49.246;7.372;2023-04-21T03:41:33;98402.78;;;3.53;85.52
47430;BME280;33181;49.246;7.372;2023-04-21T03:43:59;98398.31;;;3.55;85.23
47430;BME280;33181;49.246;7.372;2023-04-21T03:46:25;98408.81;;;3.54;84.90
47430;BME280;33181;49.246;7.372;2023-04-21T03:48:50;98403.69;;;3.52;84.79
47430;BME280;33181;49.246;7.372;2023-04-21T03:51:16;98408.03;;;3.52;84.93
47430;BME280;33181;49.246;7.372;2023-04-21T03:53:42;98414.81;;;3.54;84.94
47430;BME280;33181;49.246;7.372;2023-04-21T03:56:08;98409.53;;;3.56;84.99
47430;BME280;33181;49.246;7.372;2023-04-21T03:58:34;98408.44;;;3.60;84.46
47430;BME280;33181;49.246;7.372;2023-04-21T04:01:01;98400.56;;;3.61;84.43
47430;BME280;33181;49.246;7.372;2023-04-21T04:03:27;98404.91;;;3.61;83.80
47430;BME280;33181;49.246;7.372;2023-04-21T04:05:52;98403.25;;;3.60;83.71
47430;BME280;33181;49.246;7.372;2023-04-21T04:08:18;98395.38;;;3.61;83.60
47430;BME280;33181;49.246;7.372;2023-04-21T04:10:46;98404.63;;;3.65;82.86
47430;BME280;33181;49.246;7.372;2023-04-21T04:13:12;98400.38;;;3.64;82.97
47430;BME280;33181;49.246;7.372;2023-04-21T04:15:37;98402.41;;;3.59;83.22
47430;BME280;33181;49.246;7.372;2023-04-21T04:18:03;98404.91;;;3.61;82.70
47430;BME280;33181;49.246;7.372;2023-04-21T04:20:29;98394.53;;;3.61;82.44
47430;BME280;33181;49.246;7.372;2023-04-21T04:22:55;98398.91;;;3.60;81.84
47430;BME280;33181;49.246;7.372;2023-04-21T04:25:21;98392.00;;;3.59;81.65
47430;BME280;33181;49.246;7.372;2023-04-21T04:27:46;98395.81;;;3.54;81.79
47430;BME280;33181;49.246;7.372;2023-04-21T04:30:15;98400.25;;;3.52;81.62
47430;BME280;33181;49.246;7.372;2023-04-21T04:32:41;98396.72;;;3.53;81.32
47430;BME280;33181;49.246;7.372;2023-04-21T04:35:08;98395.00;;;3.53;81.39
47430;BME280;33181;49.246;7.372;2023-04-21T04:37:38;98407.22;;;3.51;81.60
47430;BME280;33181;49.246;7.372;2023-04-21T04:40:06;98407.22;;;3.51;81.38
47430;BME280;33181;49.246;7.372;2023-04-21T04:42:36;98405.63;;;3.48;81.24
47430;BME280;33181;49.246;7.372;2023-04-21T04:45:05;98402.94;;;3.50;81.49
47430;BME280;33181;49.246;7.372;2023-04-21T04:47:36;98401.25;;;3.49;81.43
47430;BME280;33181;49.246;7.372;2023-04-21T04:50:04;98404.63;;;3.51;81.06
47430;BME280;33181;49.246;7.372;2023-04-21T04:52:30;98397.25;;;3.43;80.65
47430;BME280;33181;49.246;7.372;2023-04-21T04:54:56;98404.84;;;3.46;80.93
47430;BME280;33181;49.246;7.372;2023-04-21T04:57:22;98403.78;;;3.51;81.17
47430;BME280;33181;49.246;7.372;2023-04-21T04:59:47;98398.25;;;3.57;81.27
47430;BME280;33181;49.246;7.372;2023-04-21T05:02:13;98400.38;;;3.64;81.35
47430;BME280;33181;49.246;7.372;2023-04-21T05:04:39;98403.44;;;3.71;81.53
47430;BME280;33181;49.246;7.372;2023-04-21T05:07:05;98410.94;;;3.91;81.61
47430;BME280;33181;49.246;7.372;2023-04-21T05:09:33;98406.88;;;4.30;81.77
47430;BME280;33181;49.246;7.372;2023-04-21T05:11:59;98410.34;;;4.72;81.05
47430;BME280;33181;49.246;7.372;2023-04-21T05:14:26;98418.25;;;5.12;80.10
47430;BME280;33181;49.246;7.372;2023-04-21T05:16:52;98409.28;;;5.83;77.97
47430;BME280;33181;49.246;7.372;2023-04-21T05:19:18;98414.38;;;6.74;74.92
47430;BME280;33181;49.246;7.372;2023-04-21T05:21:43;98414.78;;;7.41;72.03
47430;BME280;33181;49.246;7.372;2023-04-21T05:24:09;98418.94;;;7.79;68.54
47430;BME280;33181;49.246;7.372;2023-04-21T05:26:35;98409.97;;;8.06;66.87
47430;BME280;33181;49.246;7.372;2023-04-21T05:29:01;98414.66;;;7.78;63.84
47430;BME280;33181;49.246;7.372;2023-04-21T05:31:26;98416.38;;;7.55;65.15
47430;BME280;33181;49.246;7.372;2023-04-21T05:33:54;98417.84;;;7.71;65.27
47430;BME280;33181;49.246;7.372;2023-04-21T05:36:20;98425.97;;;7.90;64.74
47430;BME280;33181;49.246;7.372;2023-04-21T05:38:46;98431.97;;;8.15;65.08
47430;BME280;33181;49.246;7.372;2023-04-21T05:41:12;98424.09;;;8.39;64.05
47430;BME280;33181;49.246;7.372;2023-04-21T05:43:37;98419.44;;;8.42;63.51
47430;BME280;33181;49.246;7.372;2023-04-21T05:46:08;98433.63;;;8.16;64.18
47430;BME280;33181;49.246;7.372;2023-04-21T05:48:34;98423.31;;;8.25;63.98
47430;BME280;33181;49.246;7.372;2023-04-21T05:51:11;98425.00;;;8.26;64.64
47430;BME280;33181;49.246;7.372;2023-04-21T05:53:38;98421.47;;;8.39;64.92
47430;BME280;33181;49.246;7.372;2023-04-21T05:56:05;98421.94;;;8.66;64.57
47430;BME280;33181;49.246;7.372;2023-04-21T05:58:32;98431.00;;;8.73;63.63
47430;BME280;33181;49.246;7.372;2023-04-21T06:00:58;98426.81;;;8.59;64.01
47430;BME280;33181;49.246;7.372;2023-04-21T06:03:24;98430.75;;;8.76;64.49
47430;BME280;33181;49.246;7.372;2023-04-21T06:05:54;98425.34;;;9.00;63.73
47430;BME280;33181;49.246;7.372;2023-04-21T06:08:21;98425.94;;;9.04;64.33
47430;BME280;33181;49.246;7.372;2023-04-21T06:10:47;98433.44;;;8.97;64.12
47430;BME280;33181;49.246;7.372;2023-04-21T06:13:13;98430.03;;;8.41;65.15
47430;BME280;33181;49.246;7.372;2023-04-21T06:15:38;98431.84;;;8.16;66.19
47430;BME280;33181;49.246;7.372;2023-04-21T06:18:04;98425.09;;;7.78;68.10
47430;BME280;33181;49.246;7.372;2023-04-21T06:20:30;98432.03;;;7.55;70.05
47430;BME280;33181;49.246;7.372;2023-04-21T06:22:56;98438.13;;;7.32;71.35
47430;BME280;33181;49.246;7.372;2023-04-21T06:25:22;98437.00;;;7.23;72.48
47430;BME280;33181;49.246;7.372;2023-04-21T06:27:47;98421.50;;;7.33;73.44
47430;BME280;33181;49.246;7.372;2023-04-21T06:30:13;98425.94;;;7.43;72.57
47430;BME280;33181;49.246;7.372;2023-04-21T06:32:42;98425.69;;;7.47;71.40
47430;BME280;33181;49.246;7.372;2023-04-21T06:35:10;98423.81;;;7.49;71.38
47430;BME280;33181;49.246;7.372;2023-04-21T06:37:36;98427.50;;;7.22;72.95
47430;BME280;33181;49.246;7.372;2023-04-21T06:40:03;98431.78;;;6.86;75.58
47430;BME280;33181;49.246;7.372;2023-04-21T06:42:29;98430.25;;;6.71;77.24
47430;BME280;33181;49.246;7.372;2023-04-21T06:44:55;98430.06;;;5.97;82.68
47430;BME280;33181;49.246;7.372;2023-04-21T06:47:21;98435.09;;;5.73;85.32
47430;BME280;33181;49.246;7.372;2023-04-21T06:49:47;98430.25;;;5.54;87.58
47430;BME280;33181;49.246;7.372;2023-04-21T06:52:12;98429.97;;;5.59;88.59
47430;BME280;33181;49.246;7.372;2023-04-21T06:54:39;98424.84;;;5.57;89.99
47430;BME280;33181;49.246;7.372;2023-04-21T06:57:07;98428.22;;;5.60;90.50
47430;BME280;33181;49.246;7.372;2023-04-21T06:59:32;98423.22;;;5.69;91.46
47430;BME280;33181;49.246;7.372;2023-04-21T07:01:59;98416.16;;;5.84;91.33
47430;BME280;33181;49.246;7.372;2023-04-21T07:04:25;98412.03;;;5.94;90.66
47430;BME280;33181;49.246;7.372;2023-04-21T07:06:54;98414.97;;;6.02;90.75
47430;BME280;33181;49.246;7.372;2023-04-21T07:09:21;98418.09;;;6.20;90.13
47430;BME280;33181;49.246;7.372;2023-04-21T07:11:47;98418.50;;;6.40;90.12
47430;BME280;33181;49.246;7.372;2023-04-21T07:14:12;98414.59;;;6.71;88.18
47430;BME280;33181;49.246;7.372;2023-04-21T07:16:38;98416.75;;;6.77;88.34
47430;BME280;33181;49.246;7.372;2023-04-21T07:19:04;98408.47;;;6.96;87.36
47430;BME280;33181;49.246;7.372;2023-04-21T07:21:30;98412.88;;;7.19;85.51
47430;BME280;33181;49.246;7.372;2023-04-21T07:24:01;98414.16;;;7.14;85.25
47430;BME280;33181;49.246;7.372;2023-04-21T07:26:27;98411.78;;;7.35;85.00
47430;BME280;33181;49.246;7.372;2023-04-21T07:28:53;98409.94;;;7.59;84.31
47430;BME280;33181;49.246;7.372;2023-04-21T07:31:25;98409.13;;;8.05;83.54
47430;BME280;33181;49.246;7.372;2023-04-21T07:33:51;98415.09;;;8.07;82.23
47430;BME280;33181;49.246;7.372;2023-04-21T07:36:17;98413.91;;;8.23;80.95
47430;BME280;33181;49.246;7.372;2023-04-21T07:38:43;98410.25;;;8.81;80.36
47430;BME280;33181;49.246;7.372;2023-04-21T07:41:12;98424.38;;;9.13;77.48
47430;BME280;33181;49.246;7.372;2023-04-21T07:43:39;98410.28;;;9.25;75.76
47430;BME280;33181;49.246;7.372;2023-04-21T07:46:05;98402.75;;;9.32;74.35
47430;BME280;33181;49.246;7.372;2023-04-21T07:48:31;98403.88;;;9.50;74.83
47430;BME280;33181;49.246;7.372;2023-04-21T07:50:57;98404.19;;;9.68;73.37
47430;BME280;33181;49.246;7.372;2023-04-21T07:53:25;98399.22;;;9.95;73.78
47430;BME280;33181;49.246;7.372;2023-04-21T07:55:51;98409.88;;;9.94;71.88
47430;BME280;33181;49.246;7.372;2023-04-21T07:58:17;98403.41;;;10.19;71.06
47430;BME280;33181;49.246;7.372;2023-04-21T08:00:43;98405.50;;;10.25;71.81
47430;BME280;33181;49.246;7.372;2023-04-21T08:03:09;98390.38;;;10.38;70.99
47430;BME280;33181;49.246;7.372;2023-04-21T08:05:35;98397.81;;;10.33;70.69
47430;BME280;33181;49.246;7.372;2023-04-21T08:08:01;98393.38;;;10.03;71.84
47430;BME280;33181;49.246;7.372;2023-04-21T08:10:27;98385.72;;;10.42;73.09
47430;BME280;33181;49.246;7.372;2023-04-21T08:12:53;98391.88;;;10.72;69.64
47430;BME280;33181;49.246;7.372;2023-04-21T08:15:19;98380.78;;;10.99;69.19
47430;BME280;33181;49.246;7.372;2023-04-21T08:17:45;98371.91;;;11.00;68.34
47430;BME280;33181;49.246;7.372;2023-04-21T08:20:13;98372.19;;;10.97;68.75
47430;BME280;33181;49.246;7.372;2023-04-21T08:22:39;98370.22;;;10.79;69.32
47430;BME280;33181;49.246;7.372;2023-04-21T08:25:06;98363.34;;;10.88;69.35
47430;BME280;33181;49.246;7.372;2023-04-21T08:27:31;98354.78;;;11.25;68.08
47430;BME280;33181;49.246;7.372;2023-04-21T08:29:57;98349.81;;;11.51;66.75
47430;BME280;33181;49.246;7.372;2023-04-21T08:32:24;98349.25;;;11.57;67.61
47430;BME280;33181;49.246;7.372;2023-04-21T08:34:53;98343.72;;;11.70;65.44
47430;BME280;33181;49.246;7.372;2023-04-21T08:37:20;98331.91;;;11.83;65.63
47430;BME280;33181;49.246;7.372;2023-04-21T08:39:47;98336.81;;;12.16;65.10
47430;BME280;33181;49.246;7.372;2023-04-21T08:42:16;98333.59;;;12.59;63.32
47430;BME280;33181;49.246;7.372;2023-04-21T08:44:43;98332.00;;;12.66;63.08
47430;BME280;33181;49.246;7.372;2023-04-21T08:47:13;98333.13;;;12.64;60.48
47430;BME280;33181;49.246;7.372;2023-04-21T08:49:41;98328.91;;;12.53;61.52
47430;BME280;33181;49.246;7.372;2023-04-21T08:52:11;98329.31;;;12.76;61.82
47430;BME280;33181;49.246;7.372;2023-04-21T08:54:38;98325.28;;;12.54;62.18
47430;BME280;33181;49.246;7.372;2023-04-21T08:57:05;98323.53;;;12.45;62.12
47430;BME280;33181;49.246;7.372;2023-04-21T08:59:31;98323.63;;;12.53;62.90
47430;BME280;33181;49.246;7.372;2023-04-21T09:02:14;98317.31;;;12.64;61.92
47430;BME280;33181;49.246;7.372;2023-04-21T09:04:44;98305.34;;;12.97;60.77
47430;BME280;33181;49.246;7.372;2023-04-21T09:07:11;98307.22;;;13.05;60.33
47430;BME280;33181;49.246;7.372;2023-04-21T09:09:53;98311.41;;;13.43;59.97
47430;BME280;33181;49.246;7.372;2023-04-21T09:12:20;98311.13;;;13.54;59.29
47430;BME280;33181;49.246;7.372;2023-04-21T09:14:46;98310.59;;;13.68;58.67
47430;BME280;33181;49.246;7.372;2023-04-21T09:17:15;98296.34;;;13.87;58.68
47430;BME280;33181;49.246;7.372;2023-04-21T09:19:42;98310.38;;;14.14;57.33
47430;BME280;33181;49.246;7.372;2023-04-21T09:22:08;98299.53;;;13.99;57.12
47430;BME280;33181;49.246;7.372;2023-04-21T09:24:34;98298.16;;;14.13;57.14
47430;BME280;33181;49.246;7.372;2023-04-21T09:27:02;98301.63;;;14.13;55.85
47430;BME280;33181;49.246;7.372;2023-04-21T09:29:29;98289.41;;;14.12;55.88
47430;BME280;33181;49.246;7.372;2023-04-21T09:31:55;98293.81;;;14.38;54.66
47430;BME280;33181;49.246;7.372;2023-04-21T09:34:23;98290.16;;;14.39;55.18
47430;BME280;33181;49.246;7.372;2023-04-21T09:37:11;98302.63;;;14.21;54.88
47430;BME280;33181;49.246;7.372;2023-04-21T09:39:38;98307.03;;;14.12;54.53
47430;BME280;33181;49.246;7.372;2023-04-21T09:42:04;98312.22;;;13.96;55.17
47430;BME280;33181;49.246;7.372;2023-04-21T09:44:32;98316.75;;;14.03;54.99
47430;BME280;33181;49.246;7.372;2023-04-21T09:47:00;98313.59;;;14.00;55.86
47430;BME280;33181;49.246;7.372;2023-04-21T09:49:30;98305.84;;;14.41;54.58
47430;BME280;33181;49.246;7.372;2023-04-21T09:51:59;98311.56;;;14.54;54.06
47430;BME280;33181;49.246;7.372;2023-04-21T09:54:32;98301.19;;;14.69;53.98
47430;BME280;33181;49.246;7.372;2023-04-21T09:57:01;98304.91;;;15.09;53.92
47430;BME280;33181;49.246;7.372;2023-04-21T09:59:39;98300.81;;;15.47;51.73
47430;BME280;33181;49.246;7.372;2023-04-21T10:02:09;98300.31;;;15.11;53.92
47430;BME280;33181;49.246;7.372;2023-04-21T10:04:36;98293.66;;;15.06;52.93
47430;BME280;33181;49.246;7.372;2023-04-21T10:07:05;98285.34;;;14.77;52.73
47430;BME280;33181;49.246;7.372;2023-04-21T10:09:44;98264.88;;;14.79;52.88
47430;BME280;33181;49.246;7.372;2023-04-21T10:12:12;98262.25;;;14.95;52.96
47430;BME280;33181;49.246;7.372;2023-04-21T10:14:38;98262.59;;;15.41;53.54
47430;BME280;33181;49.246;7.372;2023-04-21T10:17:07;98258.94;;;15.83;52.26
47430;BME280;33181;49.246;7.372;2023-04-21T10:19:35;98254.94;;;15.79;50.91
47430;BME280;33181;49.246;7.372;2023-04-21T10:22:10;98254.06;;;16.03;49.83
47430;BME280;33181;49.246;7.372;2023-04-21T10:24:41;98240.13;;;16.17;50.21
47430;BME280;33181;49.246;7.372;2023-04-21T10:27:11;98252.28;;;16.35;51.07
47430;BME280;33181;49.246;7.372;2023-04-21T10:29:54;98245.91;;;16.52;49.48
47430;BME280;33181;49.246;7.372;2023-04-21T10:32:41;98242.91;;;16.55;49.00
47430;BME280;33181;49.246;7.372;2023-04-21T10:35:36;98249.63;;;16.35;48.04
47430;BME280;33181;49.246;7.372;2023-04-21T10:38:42;98246.94;;;16.43;47.90
47430;BME280;33181;49.246;7.372;2023-04-21T10:41:33;98255.50;;;16.53;46.77
47430;BME280;33181;49.246;7.372;2023-04-21T10:44:13;98245.91;;;16.13;47.60
47430;BME280;33181;49.246;7.372;2023-04-21T10:46:48;98246.50;;;16.31;47.30
47430;BME280;33181;49.246;7.372;2023-04-21T10:49:29;98233.00;;;16.10;47.75
47430;BME280;33181;49.246;7.372;2023-04-21T10:57:17;98223.81;;;16.60;47.33
47430;BME280;33181;49.246;7.372;2023-04-21T10:59:46;98220.59;;;16.96;47.14
47430;BME280;33181;49.246;7.372;2023-04-21T11:02:14;98217.22;;;16.87;46.60
47430;BME280;33181;49.246;7.372;2023-04-21T11:04:41;98217.22;;;16.87;47.51
47430;BME280;33181;49.246;7.372;2023-04-21T11:09:59;98200.50;;;17.01;47.26
47430;BME280;33181;49.246;7.372;2023-04-21T11:12:28;98196.97;;;17.09;46.74
47430;BME280;33181;49.246;7.372;2023-04-21T11:14:55;98189.28;;;16.99;46.60
47430;BME280;33181;49.246;7.372;2023-04-21T11:17:20;98194.78;;;17.12;46.50
47430;BME280;33181;49.246;7.372;2023-04-21T11:19:52;98183.22;;;17.05;47.13
47430;BME280;33181;49.246;7.372;2023-04-21T11:22:24;98188.34;;;17.07;47.08
47430;BME280;33181;49.246;7.372;2023-04-21T11:24:54;98178.13;;;16.81;47.16
47430;BME280;33181;49.246;7.372;2023-04-21T11:27:25;98161.94;;;17.13;47.77
47430;BME280;33181;49.246;7.372;2023-04-21T11:29:51;98156.03;;;17.86;44.62
47430;BME280;33181;49.246;7.372;2023-04-21T11:32:17;98160.06;;;17.37;44.52
47430;BME280;33181;49.246;7.372;2023-04-21T11:34:43;98162.94;;;17.27;45.98
47430;BME280;33181;49.246;7.372;2023-04-21T11:37:24;98164.34;;;17.38;47.40
47430;BME280;33181;49.246;7.372;2023-04-21T11:39:57;98166.47;;;17.05;46.06
47430;BME280;33181;49.246;7.372;2023-04-21T11:42:24;98158.41;;;16.98;47.04
47430;BME280;33181;49.246;7.372;2023-04-21T11:44:53;98164.97;;;17.25;46.88
47430;BME280;33181;49.246;7.372;2023-04-21T11:47:22;98163.63;;;17.44;45.98
47430;BME280;33181;49.246;7.372;2023-04-21T11:49:59;98173.06;;;17.47;46.10
47430;BME280;33181;49.246;7.372;2023-04-21T11:52:35;98159.44;;;17.94;44.30
47430;BME280;33181;49.246;7.372;2023-04-21T11:55:04;98160.34;;;18.01;43.76
47430;BME280;33181;49.246;7.372;2023-04-21T11:57:31;98161.97;;;18.02;44.37
47430;BME280;33181;49.246;7.372;2023-04-21T11:59:59;98157.31;;;18.04;43.49
47430;BME280;33181;49.246;7.372;2023-04-21T12:02:30;98158.66;;;17.71;45.73
47430;BME280;33181;49.246;7.372;2023-04-21T12:05:08;98144.38;;;18.01;45.63
47430;BME280;33181;49.246;7.372;2023-04-21T12:07:37;98141.50;;;18.75;42.87
47430;BME280;33181;49.246;7.372;2023-04-21T12:10:18;98152.00;;;19.05;42.48
47430;BME280;33181;49.246;7.372;2023-04-21T12:12:45;98142.22;;;19.12;42.22
47430;BME280;33181;49.246;7.372;2023-04-21T12:15:17;98149.06;;;19.21;40.62
47430;BME280;33181;49.246;7.372;2023-04-21T12:17:46;98157.47;;;19.53;41.78
47430;BME280;33181;49.246;7.372;2023-04-21T12:20:20;98161.75;;;19.82;40.94
47430;BME280;33181;49.246;7.372;2023-04-21T12:22:47;98162.22;;;19.93;39.80
47430;BME280;33181;49.246;7.372;2023-04-21T12:25:13;98161.88;;;20.09;39.47
47430;BME280;33181;49.246;7.372;2023-04-21T12:27:57;98165.06;;;19.56;38.96
47430;BME280;33181;49.246;7.372;2023-04-21T12:30:23;98159.56;;;18.80;40.03
47430;BME280;33181;49.246;7.372;2023-04-21T12:32:49;98161.31;;;18.51;40.78
47430;BME280;33181;49.246;7.372;2023-04-21T12:35:16;98159.19;;;18.47;41.90
47430;BME280;33181;49.246;7.372;2023-04-21T12:37:43;98161.53;;;18.57;43.13
47430;BME280;33181;49.246;7.372;2023-04-21T12:40:09;98157.66;;;18.95;42.83
47430;BME280;33181;49.246;7.372;2023-04-21T12:42:35;98161.16;;;19.52;40.77
47430;BME280;33181;49.246;7.372;2023-04-21T12:45:03;98158.31;;;19.95;40.38
47430;BME280;33181;49.246;7.372;2023-04-21T12:47:30;98151.00;;;20.10;39.80
47430;BME280;33181;49.246;7.372;2023-04-21T12:49:56;98163.72;;;20.08;39.72
47430;BME280;33181;49.246;7.372;2023-04-21T12:52:24;98158.09;;;19.55;39.45
47430;BME280;33181;49.246;7.372;2023-04-21T12:54:50;98159.56;;;19.58;39.49
47430;BME280;33181;49.246;7.372;2023-04-21T12:57:16;98159.25;;;19.74;38.71
47430;BME280;33181;49.246;7.372;2023-04-21T12:59:42;98146.16;;;19.86;39.03
47430;BME280;33181;49.246;7.372;2023-04-21T13:02:08;98144.00;;;20.03;40.01
47430;BME280;33181;49.246;7.372;2023-04-21T13:04:33;98141.09;;;19.98;39.20
47430;BME280;33181;49.246;7.372;2023-04-21T13:07:01;98138.75;;;19.75;39.08
47430;BME280;33181;49.246;7.372;2023-04-21T13:09:26;98134.59;;;19.65;38.45
47430;BME280;33181;49.246;7.372;2023-04-21T13:11:52;98129.22;;;19.24;39.13
47430;BME280;33181;49.246;7.372;2023-04-21T13:14:18;98131.59;;;18.91;40.15
47430;BME280;33181;49.246;7.372;2023-04-21T13:16:44;98128.88;;;18.63;39.82
47430;BME280;33181;49.246;7.372;2023-04-21T13:19:10;98131.47;;;18.56;42.10